Terminal Aerodrome Forecast
Issued by NWS

Home | Current Version | Previous Version | Text Only | Print | Product List | Glossary On
Versions: 1 2 3 4 5 6 7 8 9 10 11 12 13 14 15 16 17 18 19 20 21 22 23 24 25 26 27 28 29 30 31 32 33 34 35 36 37 38 39 40 41 42 43 44 45 46 47 48 49 50
522
FTUS43 KLOT 241124
TAFGYY
TAF
KGYY 241124Z 2412/2512 03008KT P6SM OVC018
     FM241400 06012KT P6SM OVC015
      TEMPO 2415/2419 -RA
     FM242300 09012G20KT P6SM VCSH OVC008
     FM250300 12015G25KT 2SM -SHRA BR OVC006
     FM250800 25022G33KT P6SM BKN020=

USA.gov is the U.S. government's official web portal to all federal, state and local government web resources and services.